Alto Araguaia, Brazil
Current Conditions -  °F | °C
As of 12:00 PM on Monday 22 Dec 2014 (Local Time) from SBBW Reporting Station
Scattered Clouds Scattered Clouds  
Wind Chill: 29°   Ceiling: Unl
Heat Index: 32°   Visibility: 6mi
Dew Point: 22°   Wind: 6mph
Humidity: 66%   Direction: 70°ENE
Pressure: 29.97"   Gusts: NA
Location:  17.31°S, 53.22°W
Report Text: SBBW 221500Z 07005KT 9999 FEW020 SCT090 29/22 Q1015
Loading
Personal Weather Stations






























Interactive Weather Map New forecast layout! Learn more

10-Day Weather Forecast

Advertisements
Track Severe Weather on mobile